Time,TemperatureF,DewpointF,PressureIn,WindDirection,WindDirectionDegrees,WindSpeedMPH,WindSpeedGustMPH,Humidity,HourlyPrecipIn,Conditions,Clouds,dailyrainin,SoftwareType,DateUTC
2014-10-20 00:22:00,39.0,36.0,30.11,SSW,196,0.0,-999.0,89,-99.99,,,-99.99,,2014-10-20 04:22:00,
2014-10-20 00:52:00,38.0,36.0,30.11,SSW,196,0.0,-999.0,91,-99.99,,,-99.99,,2014-10-20 04:52:00,
2014-10-20 01:22:00,37.0,35.0,30.11,SSW,196,0.0,-999.0,92,-99.99,,,-99.99,,2014-10-20 05:22:00,
2014-10-20 01:52:00,36.0,34.0,30.11,SSW,196,0.0,-999.0,93,-99.99,,,-99.99,,2014-10-20 05:52:00,
2014-10-20 02:22:00,36.0,34.0,30.11,SSW,196,0.0,-999.0,94,-99.99,,,-99.99,,2014-10-20 06:22:00,
2014-10-20 02:53:00,35.0,33.0,30.11,SSW,196,0.0,-999.0,94,-99.99,,,-99.99,,2014-10-20 06:53:00,
2014-10-20 03:22:00,35.0,34.0,30.10,SSW,196,0.0,-999.0,95,-99.99,,,-99.99,,2014-10-20 07:22:00,
2014-10-20 03:52:00,34.0,33.0,30.10,SSW,196,0.0,-999.0,95,-99.99,,,-99.99,,2014-10-20 07:52:00,
2014-10-20 04:22:00,34.0,33.0,30.09,ENE,69,0.0,-999.0,96,-99.99,,,-99.99,,2014-10-20 08:22:00,
2014-10-20 04:42:00,33.0,32.0,30.10,ENE,69,0.0,-999.0,96,-99.99,,,-99.99,,2014-10-20 08:42:00,
2014-10-20 04:52:00,34.0,33.0,30.10,ENE,69,0.0,-999.0,96,-99.99,,,-99.99,,2014-10-20 08:52:00,
2014-10-20 05:12:00,34.0,33.0,30.10,ENE,69,0.0,-999.0,96,-99.99,,,-99.99,,2014-10-20 09:12:00,
2014-10-20 05:23:00,34.0,33.0,30.09,ENE,69,0.0,-999.0,97,-99.99,,,-99.99,,2014-10-20 09:23:00,
2014-10-20 05:54:00,33.0,32.0,30.09,ENE,69,0.0,-999.0,97,-99.99,,,-99.99,,2014-10-20 09:54:00,
2014-10-20 06:24:00,32.0,31.0,30.10,ENE,69,0.0,-999.0,97,-99.99,,,-99.99,,2014-10-20 10:24:00,
2014-10-20 06:33:00,32.0,31.0,30.10,ENE,69,0.0,-999.0,97,-99.99,,,-99.99,,2014-10-20 10:33:00,
2014-10-20 06:43:00,32.0,31.0,30.10,ENE,69,0.0,-999.0,97,-99.99,,,-99.99,,2014-10-20 10:43:00,
2014-10-20 06:54:00,32.0,31.0,30.10,ENE,69,0.0,-999.0,97,-99.99,,,-99.99,,2014-10-20 10:54:00,
2014-10-20 07:13:00,32.0,31.0,30.10,ENE,69,0.0,-999.0,97,-99.99,,,-99.99,,2014-10-20 11:13:00,
2014-10-20 07:23:00,32.0,31.0,30.10,ENE,69,0.0,-999.0,97,-99.99,,,-99.99,,2014-10-20 11:23:00,
2014-10-20 07:42:00,32.0,31.0,30.11,ENE,69,0.0,-999.0,97,-99.99,,,-99.99,,2014-10-20 11:42:00,
2014-10-20 07:52:00,32.0,31.0,30.11,ENE,69,0.0,-999.0,97,-99.99,,,-99.99,,2014-10-20 11:52:00,
2014-10-20 08:22:00,33.0,32.0,30.11,ENE,69,0.0,-999.0,98,-99.99,,,-99.99,,2014-10-20 12:22:00,
2014-10-20 08:42:00,34.0,34.0,30.12,ENE,69,0.0,-999.0,98,-99.99,,,-99.99,,2014-10-20 12:42:00,
2014-10-20 08:52:00,35.0,34.0,30.12,ENE,69,0.0,-999.0,98,-99.99,,,-99.99,,2014-10-20 12:52:00,
2014-10-20 09:22:00,38.0,38.0,30.11,ENE,69,0.0,-999.0,99,-99.99,,,-99.99,,2014-10-20 13:22:00,
2014-10-20 09:32:00,38.0,38.0,30.11,ENE,69,0.0,-999.0,99,-99.99,,,-99.99,,2014-10-20 13:32:00,
2014-10-20 09:42:00,38.0,38.0,30.11,ENE,69,0.0,-999.0,99,-99.99,,,-99.99,,2014-10-20 13:42:00,
2014-10-20 09:53:00,41.0,41.0,30.11,ENE,69,0.0,-999.0,99,-99.99,,,-99.99,,2014-10-20 13:53:00,
2014-10-20 10:12:00,43.0,42.0,30.10,ENE,69,0.0,-999.0,98,-99.99,,,-99.99,,2014-10-20 14:12:00,
2014-10-20 10:22:00,44.0,43.0,30.10,ENE,69,0.0,-999.0,96,-99.99,,,-99.99,,2014-10-20 14:22:00,
2014-10-20 10:42:00,47.0,45.0,30.10,SSW,208,0.0,-999.0,91,-99.99,,,-99.99,,2014-10-20 14:42:00,
2014-10-20 10:52:00,52.0,43.0,30.08,South,169,3.0,-999.0,70,-99.99,,,-99.99,,2014-10-20 14:52:00,
2014-10-20 11:22:00,54.0,39.0,30.06,SSW,209,4.0,-999.0,56,-99.99,,,-99.99,,2014-10-20 15:22:00,
2014-10-20 11:43:00,55.0,39.0,30.06,SSW,202,4.0,-999.0,54,-99.99,,,-99.99,,2014-10-20 15:43:00,
2014-10-20 11:54:00,55.0,39.0,30.05,SW,232,4.0,-999.0,54,-99.99,,,-99.99,,2014-10-20 15:54:00,
2014-10-20 12:14:00,56.0,40.0,30.05,South,171,5.0,-999.0,55,-99.99,,,-99.99,,2014-10-20 16:14:00,
2014-10-20 12:23:00,57.0,41.0,30.03,SSW,200,5.0,-999.0,55,-99.99,,,-99.99,,2014-10-20 16:23:00,
2014-10-20 12:43:00,58.0,42.0,30.03,SSW,195,2.0,-999.0,55,-99.99,,,-99.99,,2014-10-20 16:43:00,
2014-10-20 12:53:00,59.0,43.0,30.03,SSW,205,4.0,-999.0,55,-99.99,,,-99.99,,2014-10-20 16:53:00,
2014-10-20 13:23:00,60.0,43.0,30.01,SSW,199,1.0,-999.0,53,-99.99,,,-99.99,,2014-10-20 17:23:00,
2014-10-20 13:54:00,60.0,44.0,29.99,SSE,152,2.0,-999.0,56,-99.99,,,-99.99,,2014-10-20 17:54:00,
2014-10-20 14:13:00,60.0,42.0,29.98,SSE,168,1.0,-999.0,52,-99.99,,,-99.99,,2014-10-20 18:13:00,
2014-10-20 14:22:00,60.0,44.0,29.98,SSW,202,2.0,-999.0,55,-99.99,,,-99.99,,2014-10-20 18:22:00,